createdAt,value
2018-04-19T00:02:05.141Z,3.70
2018-04-19T00:05:10.761Z,3.43
2018-04-19T00:08:16.717Z,3.50
2018-04-19T00:11:22.537Z,3.97
2018-04-19T00:14:27.483Z,3.40
2018-04-19T00:17:32.677Z,3.57
2018-04-19T00:20:37.896Z,4.13
2018-04-19T00:23:43.118Z,3.33
2018-04-19T00:26:49.027Z,3.77
2018-04-19T00:29:55.914Z,4.70
2018-04-19T00:33:02.158Z,3.93
2018-04-19T00:36:08.161Z,4.20
2018-04-19T00:39:15.022Z,4.20
2018-04-19T00:42:21.145Z,5.00
2018-04-19T00:45:28.264Z,4.57
2018-04-19T00:48:35.257Z,4.27
2018-04-19T00:51:41.109Z,3.97
2018-04-19T00:54:46.961Z,3.97
2018-04-19T00:57:53.100Z,3.87
2018-04-19T01:00:59.050Z,3.70
2018-04-19T01:04:04.266Z,3.10
2018-04-19T01:07:09.474Z,3.70
2018-04-19T01:10:15.778Z,3.80
2018-04-19T01:13:21.926Z,4.00
2018-04-19T01:16:27.522Z,3.70
2018-04-19T01:19:33.141Z,3.60
2018-04-19T01:22:38.625Z,3.60
2018-04-19T01:25:44.529Z,4.13
2018-04-19T01:28:51.580Z,2.90
2018-04-19T01:31:57.396Z,2.90
2018-04-19T01:35:03.153Z,3.30
2018-04-19T01:38:08.101Z,3.10
2018-04-19T01:41:13.538Z,2.43
2018-04-19T01:44:18.759Z,3.10
2018-04-19T01:47:23.965Z,2.90
2018-04-19T01:50:30.093Z,3.30
2018-04-19T01:53:36.210Z,2.93
2018-04-19T01:56:42.229Z,2.60
2018-04-19T01:59:47.478Z,3.30
2018-04-19T02:02:52.689Z,2.90
2018-04-19T02:05:59.227Z,3.40
2018-04-19T02:09:04.275Z,3.07
2018-04-19T02:12:10.705Z,3.00
2018-04-19T02:15:23.089Z,3.23
2018-04-19T02:18:28.289Z,3.10
2018-04-19T02:21:33.497Z,2.70
2018-04-19T02:24:38.717Z,2.57
2018-04-19T02:27:44.358Z,3.20
2018-04-19T02:30:49.569Z,3.50
2018-04-19T02:33:57.433Z,3.43
2018-04-19T02:37:02.650Z,3.20
2018-04-19T02:40:07.859Z,3.50
2018-04-19T02:43:13.014Z,3.00
2018-04-19T02:46:17.958Z,3.40
2018-04-19T02:49:23.194Z,3.93
2018-04-19T02:52:29.226Z,3.20
2018-04-19T02:55:35.368Z,3.20
2018-04-19T02:58:41.277Z,3.30
2018-04-19T03:01:47.411Z,2.90
2018-04-19T03:04:53.529Z,2.90
2018-04-19T03:07:58.745Z,3.17
2018-04-19T03:11:03.962Z,3.10
2018-04-19T03:14:10.979Z,3.30
2018-04-19T03:17:17.098Z,3.40
2018-04-19T03:20:23.915Z,3.30
2018-04-19T03:23:29.314Z,3.53
2018-04-19T03:26:34.532Z,3.33
2018-04-19T03:29:40.391Z,3.43
2018-04-19T03:32:46.524Z,3.37
2018-04-19T03:35:53.541Z,3.07
2018-04-19T03:38:59.373Z,3.40
2018-04-19T03:42:04.573Z,3.30
2018-04-19T03:45:10.193Z,3.10
2018-04-19T03:48:16.148Z,3.80
2018-04-19T03:51:21.961Z,3.03
2018-04-19T03:54:27.166Z,3.10
2018-04-19T03:57:34.312Z,4.00
2018-04-19T04:00:41.053Z,3.20
2018-04-19T04:03:47.236Z,3.73
2018-04-19T04:06:54.273Z,4.10
2018-04-19T04:10:00.381Z,4.00
2018-04-19T04:13:06.309Z,3.50
2018-04-19T04:16:22.614Z,3.47
2018-04-19T04:19:38.687Z,3.50
2018-04-19T04:22:54.577Z,3.90
2018-04-19T04:26:00.462Z,3.90
2018-04-19T04:29:06.556Z,3.23
2018-04-19T04:32:12.817Z,3.83
2018-04-19T04:35:18.839Z,3.27
2018-04-19T04:38:25.139Z,3.47
2018-04-19T04:41:31.441Z,4.10
2018-04-19T04:44:37.065Z,4.40
2018-04-19T04:47:42.284Z,3.90
2018-04-19T04:50:48.105Z,3.80
2018-04-19T04:53:54.270Z,4.07
2018-04-19T04:57:00.208Z,4.23
2018-04-19T05:00:06.546Z,3.73
2018-04-19T05:03:12.209Z,3.63
2018-04-19T05:06:17.186Z,3.50
2018-04-19T05:09:22.591Z,4.13
2018-04-19T05:12:28.779Z,4.63
2018-04-19T05:15:34.684Z,3.87
2018-04-19T05:18:40.805Z,4.07
2018-04-19T05:21:47.761Z,3.83
2018-04-19T05:24:54.930Z,3.97
2018-04-19T05:28:00.757Z,4.30
2018-04-19T05:31:07.585Z,4.20
2018-04-19T05:34:14.667Z,4.10
2018-04-19T05:37:21.669Z,4.23
2018-04-19T05:40:27.798Z,4.87
2018-04-19T05:43:33.906Z,4.70
2018-04-19T05:46:40.029Z,5.27
2018-04-19T05:49:46.845Z,4.83
2018-04-19T05:52:52.973Z,4.80
2018-04-19T05:55:59.855Z,4.90
2018-04-19T05:59:05.233Z,5.63
2018-04-19T06:02:10.470Z,4.40
2018-04-19T06:05:15.468Z,5.23
2018-04-19T06:08:21.589Z,4.80
2018-04-19T06:11:27.229Z,4.80
2018-04-19T06:14:32.849Z,5.00
2018-04-19T06:17:38.078Z,5.20
2018-04-19T06:20:43.205Z,5.60
2018-04-19T06:23:50.084Z,5.10
2018-04-19T06:26:55.925Z,5.20
2018-04-19T06:30:01.840Z,4.83
2018-04-19T06:33:07.053Z,5.33
2018-04-19T06:36:12.275Z,7.07
2018-04-19T06:39:17.688Z,5.80
2018-04-19T06:42:22.909Z,5.80
2018-04-19T06:45:28.109Z,5.37
2018-04-19T06:48:33.037Z,5.80
2018-04-19T06:51:38.252Z,6.53
2018-04-19T06:54:44.408Z,5.80
2018-04-19T06:57:50.509Z,5.80
2018-04-19T07:00:57.629Z,5.80
2018-04-19T07:04:03.002Z,6.93
2018-04-19T07:07:09.313Z,6.93
2018-04-19T07:10:15.168Z,6.97
2018-04-19T07:13:20.385Z,7.40
2018-04-19T07:16:26.430Z,7.57
2018-04-19T07:19:32.502Z,7.37
2018-04-19T07:22:38.193Z,7.53
2018-04-19T07:25:45.252Z,7.77
2018-04-19T07:28:52.203Z,6.60
2018-04-19T07:31:58.973Z,8.17
2018-04-19T07:35:06.108Z,7.67
2018-04-19T07:38:12.866Z,8.10
2018-04-19T07:41:19.009Z,7.13
2018-04-19T07:44:26.049Z,7.00
2018-04-19T07:47:32.801Z,7.23
2018-04-19T07:50:38.212Z,7.63
2018-04-19T07:53:43.438Z,7.27
2018-04-19T07:56:49.565Z,7.43
2018-04-19T07:59:55.505Z,7.83
2018-04-19T08:03:01.535Z,8.30
2018-04-19T08:06:06.770Z,9.10
2018-04-19T08:09:11.993Z,8.60
2018-04-19T08:12:16.950Z,7.80
2018-04-19T08:15:22.169Z,8.80
2018-04-19T08:18:29.227Z,8.83
2018-04-19T08:21:35.997Z,7.87
2018-04-19T08:24:41.861Z,8.40
2018-04-19T08:27:48.732Z,9.83
2018-04-19T08:30:54.580Z,8.27
2018-04-19T08:34:00.513Z,9.30
2018-04-19T08:37:06.617Z,9.13
2018-04-19T08:40:12.747Z,10.00
2018-04-19T08:43:19.385Z,9.67
2018-04-19T08:46:25.229Z,11.17
2018-04-19T08:49:30.453Z,9.77
2018-04-19T08:52:35.752Z,10.23
2018-04-19T08:55:40.976Z,10.43
2018-04-19T08:58:47.135Z,9.60
2018-04-19T09:01:52.350Z,9.97
2018-04-19T09:04:57.569Z,9.33
2018-04-19T09:08:02.796Z,10.43
2018-04-19T09:11:08.023Z,9.00
2018-04-19T09:14:14.146Z,8.70
2018-04-19T09:17:20.762Z,9.10
2018-04-19T09:20:26.954Z,9.27
2018-04-19T09:23:32.161Z,9.17
2018-04-19T09:26:37.383Z,8.27
2018-04-19T09:29:42.786Z,8.73
2018-04-19T09:32:47.999Z,8.50
2018-04-19T09:35:53.221Z,8.80
2018-04-19T09:39:00.285Z,9.60
2018-04-19T09:42:06.167Z,8.90
2018-04-19T09:45:11.398Z,8.80
2018-04-19T09:48:16.697Z,8.03
2018-04-19T09:51:24.074Z,8.00
2018-04-19T09:54:29.799Z,10.33
2018-04-19T09:57:36.584Z,8.40
2018-04-19T10:00:45.414Z,9.17
2018-04-19T10:03:51.355Z,9.40
2018-04-19T10:06:56.593Z,8.97
2018-04-19T10:10:02.213Z,9.23
2018-04-19T10:13:07.230Z,8.90
2018-04-19T10:16:12.462Z,8.40
2018-04-19T10:19:17.160Z,8.33
2018-04-19T10:22:22.382Z,9.27
2018-04-19T10:25:27.586Z,8.17
2018-04-19T10:28:33.331Z,9.67
2018-04-19T10:31:39.457Z,8.10
2018-04-19T10:34:45.582Z,8.23
2018-04-19T10:37:51.212Z,9.13
2018-04-19T10:40:56.417Z,8.80
2018-04-19T10:44:02.585Z,7.77
2018-04-19T10:47:08.231Z,7.87
2018-04-19T10:50:14.556Z,9.13
2018-04-19T10:53:21.494Z,8.27
2018-04-19T10:56:27.638Z,8.93
2018-04-19T10:59:33.882Z,8.80
2018-04-19T11:02:39.145Z,9.10
2018-04-19T11:05:45.254Z,7.53
2018-04-19T11:08:50.466Z,8.40
2018-04-19T11:11:56.625Z,8.00
2018-04-19T11:15:01.992Z,8.93
2018-04-19T11:18:07.737Z,8.50
2018-04-19T11:21:12.958Z,7.90
2018-04-19T11:24:18.177Z,7.47
2018-04-19T11:27:24.317Z,8.00
2018-04-19T11:30:30.462Z,7.70
2018-04-19T11:33:35.450Z,7.70
2018-04-19T11:36:40.699Z,8.30
2018-04-19T11:39:47.008Z,8.17
2018-04-19T11:42:53.140Z,7.20
2018-04-19T11:45:58.352Z,7.73
2018-04-19T11:49:04.974Z,7.50
2018-04-19T11:52:10.801Z,6.73
2018-04-19T11:55:17.654Z,7.80
2018-04-19T11:58:23.780Z,7.30
2018-04-19T12:01:30.071Z,7.03
2018-04-19T12:04:36.005Z,8.30
2018-04-19T12:07:43.054Z,6.53
2018-04-19T12:10:50.107Z,6.60
2018-04-19T12:13:56.153Z,7.03
2018-04-19T12:17:02.288Z,6.53
2018-04-19T12:20:07.266Z,6.57
2018-04-19T12:23:12.252Z,7.10
2018-04-19T12:26:18.206Z,5.60
2018-04-19T12:29:24.706Z,6.30
2018-04-19T12:32:30.600Z,6.50
2018-04-19T12:35:36.732Z,6.20
2018-04-19T12:38:42.857Z,7.17
2018-04-19T12:41:49.903Z,6.20
2018-04-19T12:44:56.953Z,5.90
2018-04-19T12:48:03.100Z,6.07
2018-04-19T12:51:09.054Z,6.00
2018-04-19T12:54:14.257Z,5.57
2018-04-19T12:57:20.178Z,5.40
2018-04-19T13:00:26.293Z,4.30
2018-04-19T13:03:33.113Z,5.30
2018-04-19T13:06:40.262Z,5.50
2018-04-19T13:09:46.390Z,5.83
2018-04-19T13:12:52.514Z,5.00
2018-04-19T13:15:59.547Z,5.40
2018-04-19T13:19:06.584Z,4.93
2018-04-19T13:22:12.438Z,5.23
2018-04-19T13:25:18.588Z,4.43
2018-04-19T13:28:25.420Z,4.50
2018-04-19T13:31:31.573Z,5.43
2018-04-19T13:34:36.761Z,4.27
2018-04-19T13:37:42.485Z,5.40
2018-04-19T13:40:48.613Z,4.80
2018-04-19T13:43:55.153Z,5.00
2018-04-19T13:47:01.275Z,4.87
2018-04-19T13:50:08.373Z,5.07
2018-04-19T13:53:15.476Z,4.53
2018-04-19T13:56:21.610Z,5.10
2018-04-19T13:59:26.822Z,4.50
2018-04-19T14:02:32.039Z,4.77
2018-04-19T14:05:37.004Z,3.83
2018-04-19T14:08:42.230Z,4.90
2018-04-19T14:11:47.444Z,5.23
2018-04-19T14:14:52.685Z,4.40
2018-04-19T14:17:59.760Z,4.87
2018-04-19T14:21:06.734Z,4.40
2018-04-19T14:24:12.894Z,3.93
2018-04-19T14:27:19.081Z,4.63
2018-04-19T14:30:25.020Z,5.00
2018-04-19T14:33:31.058Z,4.90
2018-04-19T14:36:36.266Z,4.67
2018-04-19T14:39:41.485Z,4.07
2018-04-19T14:42:46.695Z,4.10
2018-04-19T14:45:51.573Z,4.00
2018-04-19T14:48:57.296Z,4.10
2018-04-19T14:52:03.416Z,3.87
2018-04-19T14:55:09.582Z,4.17
2018-04-19T14:58:15.688Z,4.27
2018-04-19T15:01:22.774Z,4.60
2018-04-19T15:04:29.825Z,4.00
2018-04-19T15:07:35.370Z,3.80
2018-04-19T15:10:42.328Z,4.23
2018-04-19T15:13:48.228Z,3.80
2018-04-19T15:16:53.437Z,4.43
2018-04-19T15:19:58.663Z,3.30
2018-04-19T15:23:05.906Z,3.47
2018-04-19T15:26:12.988Z,3.70
2018-04-19T15:29:19.793Z,3.67
2018-04-19T15:32:24.731Z,4.83
2018-04-19T15:35:29.946Z,4.20
2018-04-19T15:38:35.163Z,4.43
2018-04-19T15:41:41.311Z,4.60
2018-04-19T15:44:47.694Z,4.50
2018-04-19T15:47:53.564Z,4.40
2018-04-19T15:50:59.886Z,5.13
2018-04-19T15:54:06.213Z,4.30
2018-04-19T15:57:13.042Z,4.47
2018-04-19T16:00:19.209Z,3.87
2018-04-19T16:03:26.258Z,3.90
2018-04-19T16:06:33.320Z,3.77
2018-04-19T16:09:39.450Z,3.83
2018-04-19T16:12:45.581Z,4.00
2018-04-19T16:15:50.789Z,4.20
2018-04-19T16:18:56.010Z,4.00
2018-04-19T16:22:01.345Z,4.47
2018-04-19T16:25:07.457Z,4.10
2018-04-19T16:28:12.727Z,4.70
2018-04-19T16:31:18.830Z,3.90
2018-04-19T16:34:24.967Z,4.20
2018-04-19T16:37:30.375Z,3.90
2018-04-19T16:40:36.721Z,4.27
2018-04-19T16:43:42.858Z,4.27
2018-04-19T16:46:48.469Z,4.13
2018-04-19T16:49:54.394Z,4.33
2018-04-19T16:53:00.450Z,3.97
2018-04-19T16:56:06.569Z,4.40
2018-04-19T16:59:13.618Z,4.00
2018-04-19T17:02:19.211Z,3.90
2018-04-19T17:05:24.428Z,4.60
2018-04-19T17:08:29.404Z,3.87
2018-04-19T17:11:34.634Z,4.20
2018-04-19T17:14:39.842Z,3.93
2018-04-19T17:17:45.223Z,3.03
2018-04-19T17:20:50.159Z,3.80
2018-04-19T17:23:56.042Z,4.00
2018-04-19T17:27:01.257Z,4.60
2018-04-19T17:30:06.489Z,3.97
2018-04-19T17:33:12.642Z,4.40
2018-04-19T17:36:18.770Z,4.23
2018-04-19T17:39:24.607Z,5.00
2018-04-19T17:42:30.791Z,4.77
2018-04-19T17:45:36.893Z,4.60
2018-04-19T17:48:42.814Z,5.63
2018-04-19T17:51:48.938Z,5.13
2018-04-19T17:54:55.108Z,4.13
2018-04-19T17:58:00.322Z,4.33
2018-04-19T18:01:06.567Z,4.97
2018-04-19T18:04:12.413Z,5.37
2018-04-19T18:07:18.033Z,5.17
2018-04-19T18:10:23.247Z,4.73
2018-04-19T18:13:28.459Z,4.90
2018-04-19T18:16:34.597Z,5.20
2018-04-19T18:19:41.656Z,4.23
2018-04-19T18:22:47.810Z,4.90
2018-04-19T18:25:54.858Z,5.33
2018-04-19T18:29:00.970Z,4.83
2018-04-19T18:32:06.849Z,5.80
2018-04-19T18:35:12.689Z,5.50
2018-04-19T18:38:18.885Z,5.47
2018-04-19T18:41:25.937Z,6.23
2018-04-19T18:44:32.101Z,4.93
2018-04-19T18:47:39.003Z,5.23
2018-04-19T18:50:46.021Z,4.83
2018-04-19T18:53:52.185Z,5.40
2018-04-19T18:56:58.312Z,5.40
2018-04-19T19:00:03.762Z,5.13
2018-04-19T19:03:09.915Z,5.20
2018-04-19T19:06:16.084Z,4.50
2018-04-19T19:09:21.992Z,4.60
2018-04-19T19:12:28.117Z,5.00
2018-04-19T19:19:50.718Z,5.17
2018-04-19T19:22:56.548Z,4.80
2018-04-19T19:26:02.685Z,5.30
2018-04-19T19:29:08.313Z,4.63
2018-04-19T19:32:14.219Z,4.77
2018-04-19T19:35:19.337Z,5.00
2018-04-19T19:38:25.232Z,4.47
2018-04-19T19:41:30.625Z,5.40
2018-04-19T19:44:37.507Z,5.00
2018-04-19T19:47:43.105Z,5.63
2018-04-19T19:50:49.228Z,4.67
2018-04-19T19:53:54.882Z,4.00
2018-04-19T19:57:01.045Z,4.17
2018-04-19T20:00:07.885Z,4.47
2018-04-19T20:03:14.942Z,4.80
2018-04-19T20:06:21.161Z,4.80
2018-04-19T20:09:26.382Z,5.60
2018-04-19T20:12:31.562Z,4.20
2018-04-19T20:15:38.628Z,4.57
2018-04-19T20:18:44.241Z,4.50
2018-04-19T20:21:50.156Z,5.00
2018-04-19T20:24:57.200Z,5.23
2018-04-19T20:28:03.469Z,5.40
2018-04-19T20:31:08.657Z,5.20
2018-04-19T20:34:14.781Z,5.43
2018-04-19T20:37:21.785Z,6.60
2018-04-19T20:40:27.921Z,6.03
2018-04-19T20:43:33.849Z,6.23
2018-04-19T20:46:39.778Z,7.60
2018-04-19T20:49:45.981Z,7.33
2018-04-19T20:52:52.032Z,5.70
2018-04-19T20:55:57.984Z,5.97
2018-04-19T20:59:03.192Z,6.73
2018-04-19T21:02:08.347Z,6.70
2018-04-19T21:05:13.722Z,7.13
2018-04-19T21:08:19.831Z,7.10
2018-04-19T21:11:25.442Z,7.20
2018-04-19T21:14:31.670Z,5.90
2018-04-19T21:17:37.290Z,7.00
2018-04-19T21:20:43.413Z,6.50
2018-04-19T21:23:49.350Z,6.00
2018-04-19T21:26:55.460Z,7.10
2018-04-19T21:30:01.690Z,7.30
2018-04-19T21:33:07.513Z,6.90
2018-04-19T21:36:14.447Z,6.50
2018-04-19T21:39:20.346Z,7.80
2018-04-19T21:42:27.502Z,6.40
2018-04-19T21:45:33.338Z,6.97
2018-04-19T21:48:39.450Z,6.23
2018-04-19T21:51:46.008Z,6.70
2018-04-19T21:54:52.133Z,5.80
2018-04-19T21:57:58.884Z,5.93
2018-04-19T22:01:05.015Z,5.70
2018-04-19T22:04:09.949Z,5.83
2018-04-19T22:07:17.098Z,5.67
2018-04-19T22:10:22.918Z,6.30
2018-04-19T22:13:29.030Z,5.77
2018-04-19T22:16:36.060Z,5.50
2018-04-19T22:19:41.951Z,5.70
2018-04-19T22:22:47.158Z,5.50
2018-04-19T22:25:52.381Z,6.23
2018-04-19T22:28:57.593Z,5.80
2018-04-19T22:32:03.260Z,6.00
2018-04-19T22:35:08.469Z,5.60
2018-04-19T22:38:15.105Z,5.70
2018-04-19T22:41:21.234Z,6.00
2018-04-19T22:44:27.202Z,6.43
2018-04-19T22:47:33.341Z,6.27
2018-04-19T22:50:39.037Z,6.27
2018-04-19T22:53:45.787Z,5.90
2018-04-19T22:56:51.686Z,6.40
2018-04-19T22:59:56.623Z,6.40
2018-04-19T23:03:01.560Z,6.43
2018-04-19T23:06:07.401Z,5.83
2018-04-19T23:09:13.541Z,7.27
2018-04-19T23:12:19.658Z,6.20
2018-04-19T23:15:25.305Z,7.37
2018-04-19T23:18:30.293Z,6.53
2018-04-19T23:21:35.501Z,6.23
2018-04-19T23:24:41.747Z,5.97
2018-04-19T23:27:47.776Z,6.20
2018-04-19T23:30:54.925Z,6.43
2018-04-19T23:34:00.746Z,6.43
2018-04-19T23:37:05.994Z,6.23
2018-04-19T23:40:11.627Z,6.77
2018-04-19T23:43:17.487Z,6.73
2018-04-19T23:46:23.752Z,6.13
2018-04-19T23:49:29.641Z,6.67
2018-04-19T23:52:36.708Z,7.03
2018-04-19T23:55:43.023Z,7.30
2018-04-19T23:58:48.229Z,6.47
